createdAt,value
2018-12-22T00:00:09.064Z,36.63
2018-12-22T00:02:38.347Z,27.40
2018-12-22T00:05:06.623Z,27.07
2018-12-22T00:07:34.367Z,15.90
2018-12-22T00:10:02.287Z,26.13
2018-12-22T00:12:36.027Z,19.70
2018-12-22T00:15:11.680Z,29.03
2018-12-22T00:17:39.414Z,22.50
2018-12-22T00:20:09.734Z,26.33
2018-12-22T00:22:37.944Z,24.43
2018-12-22T00:25:05.869Z,23.70
2018-12-22T00:27:34.052Z,24.20
2018-12-22T00:30:03.774Z,23.60
2018-12-22T00:32:34.680Z,23.73
2018-12-22T00:35:03.124Z,22.90
2018-12-22T00:37:30.928Z,33.93
2018-12-22T00:39:58.680Z,28.17
2018-12-22T00:42:26.563Z,21.03
2018-12-22T00:44:54.342Z,26.13
2018-12-22T00:47:22.063Z,37.37
2018-12-22T00:49:50.019Z,28.40
2018-12-22T00:52:18.085Z,33.97
2018-12-22T00:54:47.034Z,21.60
2018-12-22T00:57:14.785Z,18.70
2018-12-22T00:59:42.854Z,20.47
2018-12-22T01:02:10.734Z,24.30
2018-12-22T01:04:38.747Z,24.73
2018-12-22T01:07:06.759Z,25.70
2018-12-22T01:09:34.789Z,28.57
2018-12-22T01:12:02.786Z,23.33
2018-12-22T01:14:30.519Z,23.63
2018-12-22T01:16:58.252Z,23.53
2018-12-22T01:19:26.246Z,28.67
2018-12-22T01:21:54.126Z,25.60
2018-12-22T01:24:22.000Z,28.83
2018-12-22T01:26:49.908Z,28.73
2018-12-22T01:29:17.760Z,24.20
2018-12-22T01:31:46.025Z,26.97
2018-12-22T01:34:13.721Z,29.97
2018-12-22T01:36:41.563Z,32.90
2018-12-22T01:39:09.417Z,25.53
2018-12-22T01:41:37.558Z,27.13
2018-12-22T01:44:05.885Z,33.67
2018-12-22T01:46:33.657Z,30.80
2018-12-22T01:49:01.377Z,22.40
2018-12-22T01:51:29.336Z,27.80
2018-12-22T01:53:57.193Z,29.70
2018-12-22T01:56:25.108Z,23.77
2018-12-22T01:58:53.028Z,21.80
2018-12-22T02:01:20.937Z,20.57
2018-12-22T02:03:48.817Z,26.70
2018-12-22T02:06:16.598Z,32.83
2018-12-22T02:08:45.344Z,24.23
2018-12-22T02:11:13.167Z,23.93
2018-12-22T02:13:41.082Z,21.97
2018-12-22T02:16:08.878Z,29.63
2018-12-22T02:18:36.785Z,20.87
2018-12-22T02:21:04.555Z,25.63
2018-12-22T02:23:32.406Z,25.93
2018-12-22T02:26:00.222Z,24.10
2018-12-22T02:28:28.253Z,22.43
2018-12-22T02:31:18.913Z,23.77
2018-12-22T02:33:47.332Z,20.80
2018-12-22T02:36:15.075Z,21.13
2018-12-22T02:38:42.858Z,19.90
2018-12-22T02:41:11.034Z,17.80
2018-12-22T02:43:38.803Z,22.03
2018-12-22T02:46:06.509Z,26.77
2018-12-22T02:48:34.471Z,19.60
2018-12-22T02:51:02.311Z,20.57
2018-12-22T02:53:32.002Z,21.23
2018-12-22T02:55:59.731Z,14.80
2018-12-22T02:58:27.657Z,14.60
2018-12-22T03:00:55.473Z,22.97
2018-12-22T03:03:23.478Z,25.23
2018-12-22T03:05:51.546Z,22.83
2018-12-22T03:08:19.434Z,19.03
2018-12-22T03:10:47.741Z,24.30
2018-12-22T03:13:15.527Z,22.17
2018-12-22T03:15:43.776Z,17.33
2018-12-22T03:18:12.216Z,19.13
2018-12-22T03:20:43.094Z,20.17
2018-12-22T03:23:10.907Z,17.37
2018-12-22T03:25:38.672Z,23.60
2018-12-22T03:28:06.527Z,16.67
2018-12-22T03:30:34.330Z,15.23
2018-12-22T03:33:02.298Z,12.77
2018-12-22T03:35:30.850Z,23.20
2018-12-22T03:37:58.700Z,17.73
2018-12-22T03:40:26.684Z,25.87
2018-12-22T03:42:54.894Z,20.40
2018-12-22T03:45:22.784Z,15.40
2018-12-22T03:47:50.855Z,19.60
2018-12-22T03:50:19.308Z,18.90
2018-12-22T03:52:47.525Z,14.10
2018-12-22T03:55:15.433Z,25.33
2018-12-22T03:57:43.456Z,11.70
2018-12-22T04:00:11.361Z,17.80
2018-12-22T04:02:39.732Z,11.77
2018-12-22T04:05:08.066Z,11.00
2018-12-22T04:07:36.270Z,12.50
2018-12-22T04:10:04.742Z,8.27
2018-12-22T04:12:32.611Z,7.47
2018-12-22T04:15:00.608Z,15.87
2018-12-22T04:17:28.521Z,11.20
2018-12-22T04:19:56.394Z,8.00
2018-12-22T04:22:24.239Z,12.20
2018-12-22T04:24:54.251Z,9.83
2018-12-22T04:27:22.125Z,12.20
2018-12-22T04:29:50.461Z,8.20
2018-12-22T04:32:18.331Z,13.83
2018-12-22T04:34:46.068Z,3.43
2018-12-22T04:37:13.843Z,11.90
2018-12-22T04:39:41.748Z,14.03
2018-12-22T04:42:10.045Z,8.87
2018-12-22T04:44:37.914Z,6.53
2018-12-22T04:47:05.762Z,7.77
2018-12-22T04:49:33.547Z,4.50
2018-12-22T04:52:01.400Z,8.40
2018-12-22T04:54:29.205Z,4.67
2018-12-22T04:56:57.144Z,4.70
2018-12-22T04:59:25.735Z,8.30
2018-12-22T05:01:54.241Z,8.00
2018-12-22T05:04:22.718Z,9.37
2018-12-22T05:06:51.326Z,7.23
2018-12-22T05:09:19.738Z,5.30
2018-12-22T05:11:48.145Z,8.40
2018-12-22T05:14:16.467Z,11.00
2018-12-22T05:16:44.962Z,8.80
2018-12-22T05:19:13.808Z,9.33
2018-12-22T05:21:42.831Z,5.50
2018-12-22T05:24:11.525Z,5.70
2018-12-22T05:26:46.294Z,7.77
2018-12-22T05:29:14.150Z,7.20
2018-12-22T05:31:41.991Z,9.37
2018-12-22T05:34:09.790Z,8.43
2018-12-22T05:36:37.524Z,6.50
2018-12-22T05:39:06.623Z,9.87
2018-12-22T05:41:34.711Z,12.50
2018-12-22T05:45:15.453Z,6.13
2018-12-22T05:47:43.148Z,6.47
2018-12-22T05:50:11.086Z,8.30
2018-12-22T05:52:39.856Z,10.10
2018-12-22T05:55:08.162Z,5.20
2018-12-22T05:57:35.949Z,8.80
2018-12-22T06:00:04.970Z,1.40
2018-12-22T06:02:32.850Z,0.90
2018-12-22T06:05:00.841Z,1.90
2018-12-22T06:07:28.805Z,1.23
2018-12-22T06:09:56.996Z,2.60
2018-12-22T06:12:42.456Z,3.20
2018-12-22T06:15:11.763Z,23.17
2018-12-22T06:18:05.618Z,14.40
2018-12-22T06:20:33.661Z,2.80
2018-12-22T06:23:05.509Z,2.33
2018-12-22T06:25:34.341Z,2.13
2018-12-22T06:28:02.570Z,0.70
2018-12-22T06:30:31.150Z,0.90
2018-12-22T06:33:10.706Z,0.60
2018-12-22T06:35:40.715Z,1.53
2018-12-22T06:38:09.092Z,1.67
2018-12-22T06:40:37.046Z,7.20
2018-12-22T06:43:05.139Z,1.43
2018-12-22T06:45:33.646Z,2.80
2018-12-22T06:48:01.842Z,6.97
2018-12-22T06:50:30.459Z,2.93
2018-12-22T06:52:58.383Z,1.63
2018-12-22T06:55:27.179Z,23.10
2018-12-22T07:01:14.583Z,1.27
2018-12-22T07:03:48.546Z,1.70
2018-12-22T07:06:22.800Z,2.40
2018-12-22T07:08:56.811Z,3.80
2018-12-22T07:11:24.937Z,11.00
2018-12-22T07:13:55.061Z,2.50
2018-12-22T07:16:23.501Z,6.40
2018-12-22T07:18:51.952Z,4.10
2018-12-22T07:21:20.093Z,2.00
2018-12-22T07:23:48.170Z,4.23
2018-12-22T07:26:16.379Z,3.00
2018-12-22T07:28:44.812Z,4.20
2018-12-22T07:31:12.753Z,3.90
2018-12-22T07:33:40.895Z,7.30
2018-12-22T07:36:11.029Z,3.87
2018-12-22T07:38:39.006Z,7.30
2018-12-22T07:41:07.173Z,5.00
2018-12-22T07:43:41.254Z,4.50
2018-12-22T07:46:12.911Z,22.10
2018-12-22T07:48:42.273Z,10.40
2018-12-22T07:51:10.807Z,6.93
2018-12-22T07:53:44.462Z,7.00
2018-12-22T07:56:12.513Z,11.80
2018-12-22T07:58:40.400Z,8.07
2018-12-22T08:01:08.595Z,8.60
2018-12-22T08:03:36.931Z,8.83
2018-12-22T08:06:08.895Z,9.13
2018-12-22T08:08:37.783Z,9.97
2018-12-22T08:11:06.077Z,6.57
2018-12-22T08:13:36.170Z,6.00
2018-12-22T08:16:17.197Z,4.43
2018-12-22T08:18:45.671Z,4.77
2018-12-22T08:21:14.183Z,3.87
2018-12-22T08:27:04.279Z,4.87
2018-12-22T08:29:41.690Z,6.60
2018-12-22T08:32:10.883Z,11.13
2018-12-22T08:34:39.015Z,6.13
2018-12-22T08:37:25.916Z,3.97
2018-12-22T08:39:54.368Z,8.33
2018-12-22T08:42:22.459Z,5.07
2018-12-22T08:44:50.763Z,3.90
2018-12-22T08:47:18.768Z,4.97
2018-12-22T08:49:46.580Z,8.23
2018-12-22T08:52:14.858Z,50.60
2018-12-22T08:54:42.958Z,19.73
2018-12-22T08:57:12.592Z,9.93
2018-12-22T08:59:40.859Z,7.70
2018-12-22T09:02:11.244Z,8.77
2018-12-22T09:04:40.230Z,5.53
2018-12-22T09:07:09.449Z,5.50
2018-12-22T09:09:37.504Z,10.60
2018-12-22T09:12:06.023Z,5.13
2018-12-22T09:14:34.312Z,6.77
2018-12-22T09:17:02.848Z,4.07
2018-12-22T09:19:30.849Z,10.03
2018-12-22T09:21:59.073Z,6.03
2018-12-22T09:24:27.125Z,4.93
2018-12-22T09:26:55.061Z,9.10
2018-12-22T09:29:23.190Z,2.50
2018-12-22T09:31:51.261Z,14.60
2018-12-22T09:34:19.276Z,18.33
2018-12-22T09:36:54.554Z,10.00
2018-12-22T09:39:23.059Z,5.00
2018-12-22T09:41:51.617Z,8.70
2018-12-22T09:44:19.853Z,7.03
2018-12-22T09:46:48.660Z,9.47
2018-12-22T09:49:16.779Z,8.83
2018-12-22T09:51:45.689Z,3.10
2018-12-22T09:54:20.502Z,10.83
2018-12-22T09:56:49.939Z,3.63
2018-12-22T09:59:18.552Z,6.27
2018-12-22T10:01:46.513Z,14.70
2018-12-22T10:04:14.516Z,7.17
2018-12-22T10:06:43.775Z,11.40
2018-12-22T10:09:11.798Z,4.00
2018-12-22T10:11:39.801Z,10.43
2018-12-22T10:14:17.650Z,3.07
2018-12-22T10:16:47.199Z,17.20
2018-12-22T10:22:15.932Z,9.13
2018-12-22T10:24:43.932Z,8.20
2018-12-22T10:27:12.231Z,4.60
2018-12-22T10:29:40.225Z,5.40
2018-12-22T10:32:10.695Z,6.63
2018-12-22T10:34:39.818Z,3.33
2018-12-22T10:37:08.906Z,6.73
2018-12-22T10:39:36.803Z,6.07
2018-12-22T10:42:08.819Z,4.93
2018-12-22T10:44:37.328Z,6.83
2018-12-22T10:47:05.546Z,7.53
2018-12-22T10:49:34.603Z,11.93
2018-12-22T10:52:03.136Z,9.97
2018-12-22T10:54:44.215Z,2.67
2018-12-22T10:57:12.499Z,13.10
2018-12-22T10:59:40.480Z,8.23
2018-12-22T11:02:09.719Z,14.13
2018-12-22T11:04:37.651Z,7.00
2018-12-22T11:07:05.461Z,11.50
2018-12-22T11:09:33.228Z,18.90
2018-12-22T11:12:01.096Z,27.13
2018-12-22T11:14:28.753Z,8.57
2018-12-22T11:16:56.583Z,5.87
2018-12-22T11:19:24.723Z,8.53
2018-12-22T11:21:52.862Z,7.83
2018-12-22T11:24:22.118Z,6.17
2018-12-22T11:26:50.031Z,10.87
2018-12-22T11:29:19.143Z,11.10
2018-12-22T11:31:46.977Z,8.60
2018-12-22T11:34:15.055Z,6.30
2018-12-22T11:36:42.942Z,9.87
2018-12-22T11:39:10.765Z,6.27
2018-12-22T11:41:38.660Z,7.43
2018-12-22T11:44:08.596Z,6.50
2018-12-22T11:46:37.741Z,7.53
2018-12-22T11:49:14.867Z,7.33
2018-12-22T11:51:42.595Z,8.07
2018-12-22T11:54:10.436Z,6.03
2018-12-22T11:56:38.322Z,7.13
2018-12-22T11:59:06.288Z,8.37
2018-12-22T12:01:34.388Z,50.40
2018-12-22T12:04:02.700Z,56.57
2018-12-22T12:06:30.798Z,15.83
2018-12-22T12:08:58.843Z,13.40
2018-12-22T12:11:27.254Z,11.40
2018-12-22T12:13:57.081Z,7.13
2018-12-22T12:16:39.678Z,10.93
2018-12-22T12:19:19.007Z,7.00
2018-12-22T12:21:46.855Z,9.17
2018-12-22T12:24:15.545Z,7.00
2018-12-22T12:26:43.347Z,8.50
2018-12-22T12:29:11.136Z,5.77
2018-12-22T12:34:50.919Z,11.20
2018-12-22T12:37:18.879Z,10.80
2018-12-22T12:39:46.987Z,7.00
2018-12-22T12:42:25.288Z,5.20
2018-12-22T12:44:53.194Z,9.73
2018-12-22T12:47:21.299Z,11.30
2018-12-22T12:49:49.132Z,5.70
2018-12-22T12:52:17.192Z,9.90
2018-12-22T12:54:44.882Z,7.40
2018-12-22T12:57:13.286Z,8.43
2018-12-22T12:59:41.709Z,6.37
2018-12-22T13:02:13.031Z,9.43
2018-12-22T13:04:40.859Z,8.93
2018-12-22T13:07:09.763Z,11.57
2018-12-22T13:09:37.700Z,7.70
2018-12-22T13:12:13.328Z,6.83
2018-12-22T13:14:42.472Z,6.90
2018-12-22T13:17:10.335Z,9.33
2018-12-22T13:19:38.402Z,10.60
2018-12-22T13:22:11.284Z,7.97
2018-12-22T13:24:40.071Z,4.00
2018-12-22T13:30:19.095Z,12.93
2018-12-22T13:32:51.849Z,5.27
2018-12-22T13:35:20.703Z,4.20
2018-12-22T13:37:49.024Z,2.83
2018-12-22T13:40:17.459Z,4.63
2018-12-22T13:42:47.437Z,3.23
2018-12-22T13:45:15.352Z,4.93
2018-12-22T13:47:44.666Z,4.33
2018-12-22T13:50:12.875Z,5.27
2018-12-22T13:52:42.132Z,4.37
2018-12-22T13:55:10.136Z,4.20
2018-12-22T13:57:38.130Z,8.83
2018-12-22T14:00:21.911Z,6.20
2018-12-22T14:02:49.822Z,3.60
2018-12-22T14:05:21.061Z,4.83
2018-12-22T14:07:49.034Z,11.07
2018-12-22T14:10:17.392Z,10.47
2018-12-22T14:12:46.526Z,6.63
2018-12-22T14:15:18.705Z,9.23
2018-12-22T14:19:56.800Z,6.30
2018-12-22T14:22:24.952Z,8.17
2018-12-22T14:24:53.538Z,6.17
2018-12-22T14:27:21.267Z,10.30
2018-12-22T14:29:49.144Z,10.50
2018-12-22T14:32:17.072Z,6.50
2018-12-22T14:34:56.149Z,9.30
2018-12-22T14:37:24.033Z,6.00
2018-12-22T14:39:52.133Z,7.17
2018-12-22T14:42:37.372Z,7.87
2018-12-22T14:45:13.675Z,9.03
2018-12-22T14:47:41.979Z,12.17
2018-12-22T14:50:11.638Z,7.97
2018-12-22T14:52:40.355Z,5.40
2018-12-22T14:55:08.889Z,10.50
2018-12-22T14:57:44.762Z,11.20
2018-12-22T15:00:20.869Z,10.20
2018-12-22T15:02:49.132Z,11.93
2018-12-22T15:05:16.999Z,15.07
2018-12-22T15:07:47.707Z,8.73
2018-12-22T15:10:15.730Z,6.60
2018-12-22T15:12:44.635Z,9.87
2018-12-22T15:15:15.045Z,13.73
2018-12-22T15:17:43.094Z,17.10
2018-12-22T15:20:14.394Z,13.23
2018-12-22T15:22:42.331Z,11.00
2018-12-22T15:25:10.485Z,9.07
2018-12-22T15:27:38.379Z,12.20
2018-12-22T15:30:15.146Z,9.57
2018-12-22T15:32:53.789Z,9.40
2018-12-22T15:35:14.089Z,10.87
2018-12-22T15:37:41.964Z,9.40
2018-12-22T15:40:11.889Z,7.50
2018-12-22T15:42:41.071Z,6.40
2018-12-22T15:45:14.562Z,9.73
2018-12-22T15:47:43.631Z,16.17
2018-12-22T15:50:14.916Z,5.53
2018-12-22T15:52:43.226Z,8.20
2018-12-22T15:55:11.511Z,13.57
2018-12-22T15:57:51.117Z,7.03
2018-12-22T16:03:29.547Z,11.87
2018-12-22T16:05:58.238Z,9.80
2018-12-22T16:08:26.534Z,8.50
2018-12-22T16:10:54.718Z,7.17
2018-12-22T16:13:22.879Z,8.13
2018-12-22T16:15:50.901Z,11.00
2018-12-22T16:18:21.507Z,7.60
2018-12-22T16:20:49.327Z,11.93
2018-12-22T16:23:17.272Z,7.63
2018-12-22T16:25:45.409Z,12.07
2018-12-22T16:28:22.602Z,8.47
2018-12-22T16:30:55.825Z,12.30
2018-12-22T16:33:23.559Z,8.90
2018-12-22T16:35:51.530Z,12.03
2018-12-22T16:38:19.505Z,6.03
2018-12-22T16:40:47.530Z,8.97
2018-12-22T16:43:17.421Z,12.10
2018-12-22T16:45:48.262Z,17.47
2018-12-22T16:48:19.310Z,13.40
2018-12-22T16:50:48.049Z,9.80
2018-12-22T16:53:31.397Z,15.07
2018-12-22T16:55:59.376Z,9.70
2018-12-22T16:58:37.059Z,16.30
2018-12-22T17:02:16.893Z,12.30
2018-12-22T17:04:45.585Z,19.33
2018-12-22T17:07:13.504Z,7.27
2018-12-22T17:09:47.104Z,13.30
2018-12-22T17:12:15.350Z,7.63
2018-12-22T17:14:43.939Z,18.83
2018-12-22T17:17:12.157Z,13.43
2018-12-22T17:19:44.248Z,12.00
2018-12-22T17:22:42.482Z,16.10
2018-12-22T17:28:38.898Z,16.70
2018-12-22T17:31:07.039Z,12.20
2018-12-22T17:33:36.291Z,14.70
2018-12-22T17:36:08.862Z,8.33
2018-12-22T17:38:36.707Z,14.43
2018-12-22T17:41:04.514Z,14.23
2018-12-22T17:43:33.476Z,14.03
2018-12-22T17:46:02.078Z,11.13
2018-12-22T17:48:29.967Z,11.40
2018-12-22T17:50:57.779Z,13.30
2018-12-22T17:53:25.984Z,8.70
2018-12-22T17:55:54.036Z,11.97
2018-12-22T17:58:22.006Z,21.10
2018-12-22T18:00:50.460Z,18.33
2018-12-22T18:03:27.236Z,13.90
2018-12-22T18:05:50.347Z,17.17
2018-12-22T18:08:18.452Z,16.50
2018-12-22T18:10:46.376Z,9.63
2018-12-22T18:13:14.997Z,17.80
2018-12-22T18:15:43.430Z,12.17
2018-12-22T18:18:11.860Z,13.37
2018-12-22T18:20:44.698Z,9.33
2018-12-22T18:23:30.380Z,17.40
2018-12-22T18:25:58.506Z,9.73
2018-12-22T18:28:27.046Z,13.27
2018-12-22T18:30:55.602Z,14.37
2018-12-22T18:33:23.700Z,10.00
2018-12-22T18:35:52.006Z,7.90
2018-12-22T18:38:20.073Z,9.40
2018-12-22T18:40:49.123Z,8.93
2018-12-22T18:43:24.841Z,10.00
2018-12-22T18:45:52.892Z,15.37
2018-12-22T18:48:20.817Z,6.90
2018-12-22T18:50:50.049Z,17.00
2018-12-22T18:53:19.059Z,14.13
2018-12-22T18:55:47.437Z,8.13
2018-12-22T18:58:15.939Z,12.33
2018-12-22T19:01:13.099Z,13.70
2018-12-22T19:03:44.820Z,16.10
2018-12-22T19:06:12.312Z,22.87
2018-12-22T19:08:40.385Z,34.00
2018-12-22T19:11:10.486Z,20.73
2018-12-22T19:13:38.480Z,14.23
2018-12-22T19:16:11.000Z,10.90
2018-12-22T19:18:40.106Z,16.20
2018-12-22T19:21:08.183Z,16.20
2018-12-22T19:23:36.003Z,9.70
2018-12-22T19:26:07.583Z,13.63
2018-12-22T19:28:35.720Z,11.13
2018-12-22T19:31:03.840Z,9.30
2018-12-22T19:33:32.463Z,13.33
2018-12-22T19:36:00.291Z,13.83
2018-12-22T19:38:28.362Z,14.20
2018-12-22T19:40:56.298Z,15.70
2018-12-22T19:43:24.325Z,12.43
2018-12-22T19:45:52.387Z,13.20
2018-12-22T19:48:24.182Z,14.90
2018-12-22T19:50:53.423Z,10.93
2018-12-22T19:53:21.725Z,11.80
2018-12-22T19:55:49.834Z,12.30
2018-12-22T19:58:17.813Z,11.93
2018-12-22T20:00:45.520Z,8.57
2018-12-22T20:03:41.213Z,9.70
2018-12-22T20:06:14.265Z,10.30
2018-12-22T20:08:42.301Z,9.97
2018-12-22T20:11:10.329Z,12.03
2018-12-22T20:13:38.690Z,15.13
2018-12-22T20:16:10.637Z,17.47
2018-12-22T20:18:50.929Z,11.50
2018-12-22T20:21:31.555Z,17.27
2018-12-22T20:23:59.642Z,14.07
2018-12-22T20:26:28.559Z,9.60
2018-12-22T20:28:56.641Z,18.97
2018-12-22T20:31:24.805Z,12.23
2018-12-22T20:33:52.963Z,15.10
2018-12-22T20:36:21.071Z,14.40
2018-12-22T20:38:49.288Z,12.73
2018-12-22T20:41:17.276Z,33.93
2018-12-22T20:43:45.329Z,21.50
2018-12-22T20:46:13.427Z,13.33
2018-12-22T20:48:42.226Z,10.63
2018-12-22T20:51:10.831Z,10.20
2018-12-22T20:53:39.198Z,13.60
2018-12-22T20:56:10.164Z,16.50
2018-12-22T20:58:38.260Z,9.07
2018-12-22T21:01:06.137Z,11.43
2018-12-22T21:03:38.934Z,16.43
2018-12-22T21:06:14.862Z,10.13
2018-12-22T21:08:56.619Z,11.43
2018-12-22T21:11:24.818Z,16.40
2018-12-22T21:13:53.380Z,18.33
2018-12-22T21:16:21.355Z,9.00
2018-12-22T21:18:50.192Z,13.43
2018-12-22T21:21:18.406Z,7.87
2018-12-22T21:23:46.797Z,10.60
2018-12-22T21:26:14.645Z,9.53
2018-12-22T21:28:42.516Z,18.63
2018-12-22T21:31:10.215Z,14.30
2018-12-22T21:33:38.245Z,12.07
2018-12-22T21:36:13.851Z,10.10
2018-12-22T21:38:41.720Z,10.63
2018-12-22T21:41:09.481Z,11.30
2018-12-22T21:43:37.503Z,14.23
2018-12-22T21:46:10.076Z,10.10
2018-12-22T21:48:38.090Z,7.20
2018-12-22T21:51:06.127Z,19.13
2018-12-22T21:53:34.056Z,12.17
2018-12-22T21:56:02.531Z,19.50
2018-12-22T21:58:30.429Z,31.80
2018-12-22T22:00:59.002Z,20.50
2018-12-22T22:03:26.785Z,14.90
2018-12-22T22:05:54.719Z,14.50
2018-12-22T22:08:22.593Z,15.43
2018-12-22T22:10:50.501Z,11.10
2018-12-22T22:13:18.603Z,10.53
2018-12-22T22:15:46.674Z,9.47
2018-12-22T22:18:14.516Z,14.53
2018-12-22T22:20:49.082Z,14.90
2018-12-22T22:23:20.379Z,9.80
2018-12-22T22:25:48.536Z,12.70
2018-12-22T22:28:16.403Z,16.63
2018-12-22T22:30:44.479Z,17.53
2018-12-22T22:33:12.341Z,14.77
2018-12-22T22:35:40.399Z,18.43
2018-12-22T22:38:10.273Z,10.73
2018-12-22T22:40:38.112Z,12.27
2018-12-22T22:43:05.932Z,17.57
2018-12-22T22:45:33.835Z,16.03
2018-12-22T22:48:01.895Z,12.27
2018-12-22T22:50:30.335Z,11.70
2018-12-22T22:52:58.639Z,12.90
2018-12-22T22:55:27.033Z,11.93
2018-12-22T22:57:55.037Z,14.93
2018-12-22T23:00:29.823Z,14.33
2018-12-22T23:02:57.576Z,10.60
2018-12-22T23:05:25.645Z,10.80
2018-12-22T23:07:53.903Z,18.80
2018-12-22T23:10:22.135Z,11.57
2018-12-22T23:12:50.166Z,11.53
2018-12-22T23:15:18.623Z,15.50
2018-12-22T23:17:46.369Z,17.20
2018-12-22T23:20:15.224Z,18.10
2018-12-22T23:22:43.169Z,20.93
2018-12-22T23:25:10.880Z,12.17
2018-12-22T23:27:38.710Z,18.00
2018-12-22T23:30:14.978Z,16.37
2018-12-22T23:32:43.262Z,14.80
2018-12-22T23:35:11.048Z,19.90
2018-12-22T23:37:38.834Z,22.90
2018-12-22T23:40:09.230Z,13.90
2018-12-22T23:42:37.106Z,17.93
2018-12-22T23:45:12.096Z,11.97
2018-12-22T23:47:40.063Z,20.73
2018-12-22T23:50:09.576Z,14.77
2018-12-22T23:52:37.334Z,14.53
2018-12-22T23:55:05.595Z,12.07
2018-12-22T23:57:33.425Z,8.00
